createdAt,value
2022-10-13T00:01:09.373Z,8.00
2022-10-13T00:03:38.299Z,8.00
2022-10-13T00:06:08.340Z,8.00
2022-10-13T00:08:37.151Z,8.00
2022-10-13T00:11:13.013Z,8.00
2022-10-13T00:13:41.453Z,8.00
2022-10-13T00:16:10.384Z,8.10
2022-10-13T00:18:38.834Z,8.20
2022-10-13T00:21:09.420Z,8.10
2022-10-13T00:23:38.170Z,8.10
2022-10-13T00:26:08.057Z,8.10
2022-10-13T00:28:38.193Z,8.00
2022-10-13T00:31:18.981Z,8.00
2022-10-13T00:33:47.224Z,8.00
2022-10-13T00:36:15.810Z,8.10
2022-10-13T00:38:44.211Z,8.10
2022-10-13T00:41:12.283Z,8.10
2022-10-13T00:43:58.492Z,8.00
2022-10-13T00:46:28.161Z,8.10
2022-10-13T00:49:03.160Z,8.10
2022-10-13T00:51:34.817Z,8.20
2022-10-13T00:54:05.122Z,8.10
2022-10-13T00:56:33.545Z,8.20
2022-10-13T00:59:04.120Z,8.10
2022-10-13T01:01:32.990Z,8.20
2022-10-13T01:04:01.205Z,8.20
2022-10-13T01:06:29.253Z,8.20
2022-10-13T01:08:59.498Z,8.20
2022-10-13T01:11:43.418Z,8.20
2022-10-13T01:14:23.874Z,8.20
2022-10-13T01:17:00.128Z,8.10
2022-10-13T01:19:46.593Z,8.20
2022-10-13T01:22:31.833Z,8.20
2022-10-13T01:25:07.458Z,8.20
2022-10-13T01:28:00.848Z,8.20
2022-10-13T01:30:35.685Z,8.10
2022-10-13T01:33:14.899Z,8.10
2022-10-13T01:35:54.120Z,8.10
2022-10-13T01:38:31.218Z,8.10
2022-10-13T01:41:05.984Z,8.00
2022-10-13T01:43:39.040Z,8.10
2022-10-13T01:46:13.413Z,8.10
2022-10-13T01:48:43.063Z,8.10
2022-10-13T01:51:15.459Z,8.20
2022-10-13T01:53:46.569Z,8.20
2022-10-13T01:56:14.721Z,8.10
2022-10-13T01:58:42.998Z,8.00
2022-10-13T02:01:23.147Z,8.00
2022-10-13T02:04:01.461Z,8.00
2022-10-13T02:06:33.818Z,8.00
2022-10-13T02:09:05.881Z,8.00
2022-10-13T02:11:33.957Z,8.00
2022-10-13T02:14:08.114Z,7.90
2022-10-13T02:16:43.352Z,7.80
2022-10-13T02:19:13.987Z,7.70
2022-10-13T02:21:42.875Z,7.60
2022-10-13T02:24:11.646Z,7.50
2022-10-13T02:26:39.578Z,7.50
2022-10-13T02:29:11.710Z,7.30
2022-10-13T02:31:42.278Z,7.40
2022-10-13T02:34:10.451Z,7.40
2022-10-13T02:36:39.105Z,7.40
2022-10-13T02:39:08.274Z,7.40
2022-10-13T02:41:36.374Z,7.30
2022-10-13T02:44:04.579Z,7.30
2022-10-13T02:46:42.966Z,7.40
2022-10-13T02:49:11.201Z,7.40
2022-10-13T02:51:40.361Z,7.30
2022-10-13T02:54:08.909Z,7.30
2022-10-13T02:56:36.841Z,7.20
2022-10-13T02:59:04.947Z,7.10
2022-10-13T03:01:33.291Z,7.10
2022-10-13T03:04:02.584Z,7.10
2022-10-13T03:06:30.561Z,7.10
2022-10-13T03:08:59.237Z,7.00
2022-10-13T03:11:27.251Z,6.90
2022-10-13T03:13:55.227Z,6.80
2022-10-13T03:16:23.398Z,6.90
2022-10-13T03:18:51.282Z,6.80
2022-10-13T03:21:20.709Z,6.90
2022-10-13T03:23:48.806Z,6.90
2022-10-13T03:26:16.864Z,6.90
2022-10-13T03:28:44.883Z,7.00
2022-10-13T03:31:13.681Z,7.00
2022-10-13T03:33:41.900Z,7.10
2022-10-13T03:36:09.886Z,7.10
2022-10-13T03:38:40.560Z,7.10
2022-10-13T03:41:11.052Z,7.00
2022-10-13T03:43:39.573Z,7.10
2022-10-13T03:46:08.839Z,7.10
2022-10-13T03:48:37.592Z,7.00
2022-10-13T03:51:07.393Z,7.00
2022-10-13T03:53:35.801Z,6.90
2022-10-13T03:56:06.597Z,6.90
2022-10-13T03:58:40.830Z,6.90
2022-10-13T04:01:08.891Z,6.90
2022-10-13T04:03:38.057Z,6.90
2022-10-13T04:06:06.980Z,6.90
2022-10-13T04:08:35.443Z,6.90
2022-10-13T04:11:07.308Z,7.00
2022-10-13T04:13:36.591Z,6.90
2022-10-13T04:16:05.579Z,7.00
2022-10-13T04:18:33.823Z,7.10
2022-10-13T04:21:02.251Z,7.20
2022-10-13T04:23:30.198Z,7.30
2022-10-13T04:25:58.111Z,7.30
2022-10-13T04:28:27.458Z,7.20
2022-10-13T04:30:55.374Z,7.30
2022-10-13T04:33:23.302Z,7.40
2022-10-13T04:35:51.273Z,7.40
2022-10-13T04:38:19.134Z,7.50
2022-10-13T04:40:47.181Z,7.40
2022-10-13T04:43:15.861Z,7.30
2022-10-13T04:45:45.131Z,7.30
2022-10-13T04:48:13.037Z,7.30
2022-10-13T04:50:41.086Z,7.30
2022-10-13T04:53:09.018Z,7.30
2022-10-13T04:55:37.719Z,7.30
2022-10-13T04:58:05.710Z,7.40
2022-10-13T05:00:33.649Z,7.40
2022-10-13T05:03:02.979Z,7.40
2022-10-13T05:05:30.941Z,7.50
2022-10-13T05:07:58.816Z,7.50
2022-10-13T05:10:29.210Z,7.60
2022-10-13T05:12:59.571Z,7.60
2022-10-13T05:15:27.569Z,7.70
2022-10-13T05:17:55.722Z,7.80
2022-10-13T05:20:25.854Z,7.80
2022-10-13T05:22:53.894Z,7.80
2022-10-13T05:25:22.137Z,7.80
2022-10-13T05:27:50.110Z,7.80
2022-10-13T05:30:18.112Z,7.90
2022-10-13T05:32:48.306Z,8.00
2022-10-13T05:35:24.397Z,8.00
2022-10-13T05:37:52.460Z,8.10
2022-10-13T05:40:21.285Z,8.30
2022-10-13T05:42:51.002Z,8.30
2022-10-13T05:45:20.716Z,8.40
2022-10-13T05:47:48.678Z,8.50
2022-10-13T05:50:16.804Z,8.50
2022-10-13T05:52:46.885Z,8.60
2022-10-13T05:55:17.201Z,8.60
2022-10-13T05:57:49.412Z,8.70
2022-10-13T06:00:20.173Z,8.70
2022-10-13T06:02:51.087Z,8.70
2022-10-13T06:05:22.204Z,8.80
2022-10-13T06:07:56.119Z,8.90
2022-10-13T06:10:24.607Z,9.00
2022-10-13T06:12:52.693Z,9.10
2022-10-13T06:15:24.425Z,9.30
2022-10-13T06:17:55.458Z,9.50
2022-10-13T06:20:23.758Z,9.60
2022-10-13T06:22:51.729Z,9.70
2022-10-13T06:25:21.067Z,9.80
2022-10-13T06:27:49.876Z,9.90
2022-10-13T06:30:18.035Z,9.90
2022-10-13T06:32:45.978Z,9.90
2022-10-13T06:35:14.498Z,10.00
2022-10-13T06:37:42.483Z,10.10
2022-10-13T06:40:12.342Z,10.10
2022-10-13T06:42:41.645Z,10.10
2022-10-13T06:45:11.340Z,10.20
2022-10-13T06:47:42.270Z,10.30
2022-10-13T06:50:10.889Z,10.30
2022-10-13T06:52:39.176Z,10.50
2022-10-13T06:55:07.606Z,10.60
2022-10-13T06:57:35.979Z,10.70
2022-10-13T07:00:09.510Z,10.80
2022-10-13T07:02:38.702Z,10.90
2022-10-13T07:05:07.149Z,11.00
2022-10-13T07:07:35.277Z,11.10
2022-10-13T07:10:03.262Z,11.30
2022-10-13T07:12:31.180Z,11.50
2022-10-13T07:14:59.127Z,11.60
2022-10-13T07:17:28.451Z,11.70
2022-10-13T07:19:57.991Z,11.80
2022-10-13T07:22:27.489Z,11.80
2022-10-13T07:24:55.441Z,11.80
2022-10-13T07:27:25.385Z,11.90
2022-10-13T07:29:53.619Z,12.00
2022-10-13T07:32:21.593Z,12.10
2022-10-13T07:34:53.373Z,12.20
2022-10-13T07:37:21.930Z,12.20
2022-10-13T07:39:50.176Z,12.30
2022-10-13T07:42:18.494Z,12.40
2022-10-13T07:44:49.007Z,12.50
2022-10-13T07:47:17.369Z,12.70
2022-10-13T07:49:45.687Z,12.90
2022-10-13T07:52:15.036Z,12.90
2022-10-13T07:54:43.047Z,12.90
2022-10-13T07:57:11.052Z,12.80
2022-10-13T07:59:39.198Z,12.90
2022-10-13T08:02:10.771Z,13.10
2022-10-13T08:04:39.090Z,13.30
2022-10-13T08:07:07.659Z,13.30
2022-10-13T08:09:37.122Z,13.40
2022-10-13T08:12:05.365Z,13.40
2022-10-13T08:14:33.703Z,13.30
2022-10-13T08:17:01.840Z,13.40
2022-10-13T08:19:29.877Z,13.50
2022-10-13T08:21:59.504Z,13.60
2022-10-13T08:24:29.559Z,13.70
2022-10-13T08:26:58.828Z,13.60
2022-10-13T08:29:26.867Z,13.80
2022-10-13T08:31:55.799Z,14.10
2022-10-13T08:34:24.269Z,14.20
2022-10-13T08:36:54.621Z,14.30
2022-10-13T08:39:24.472Z,14.10
2022-10-13T08:41:52.940Z,14.10
2022-10-13T08:45:10.498Z,14.30
2022-10-13T08:47:21.569Z,14.50
2022-10-13T08:49:49.904Z,14.60
2022-10-13T08:52:21.234Z,14.70
2022-10-13T08:54:50.403Z,15.00
2022-10-13T08:57:19.409Z,15.20
2022-10-13T08:59:49.533Z,15.40
2022-10-13T09:02:24.848Z,15.70
2022-10-13T09:04:54.089Z,16.20
2022-10-13T09:07:25.298Z,16.50
2022-10-13T09:09:54.468Z,17.00
2022-10-13T09:12:26.515Z,17.50
2022-10-13T09:15:03.276Z,17.40
2022-10-13T09:17:33.085Z,17.20
2022-10-13T09:20:03.408Z,17.30
2022-10-13T09:22:33.885Z,17.60
2022-10-13T09:25:20.219Z,17.80
2022-10-13T09:27:50.591Z,18.20
2022-10-13T09:30:41.999Z,18.20
2022-10-13T09:33:24.354Z,18.30
2022-10-13T09:36:14.504Z,19.30
2022-10-13T09:38:45.314Z,20.40
2022-10-13T09:41:17.299Z,20.60
2022-10-13T09:43:59.769Z,20.10
2022-10-13T09:46:32.625Z,19.00
2022-10-13T09:49:04.022Z,18.20
2022-10-13T09:51:37.470Z,17.50
2022-10-13T09:54:28.972Z,16.90
2022-10-13T09:57:02.001Z,16.60
2022-10-13T09:59:35.889Z,16.50
2022-10-13T10:02:26.428Z,16.60
2022-10-13T10:04:58.068Z,16.60
2022-10-13T10:07:31.073Z,17.40
2022-10-13T10:10:05.550Z,17.90
2022-10-13T10:12:38.196Z,17.90
2022-10-13T10:15:18.236Z,18.20
2022-10-13T10:17:53.678Z,18.10
2022-10-13T10:20:50.084Z,18.00
2022-10-13T10:23:23.374Z,18.40
2022-10-13T10:25:55.090Z,18.40
2022-10-13T10:28:39.277Z,18.50
2022-10-13T10:31:17.865Z,17.90
2022-10-13T10:33:58.723Z,17.70
2022-10-13T10:36:35.647Z,17.70
2022-10-13T10:39:13.794Z,17.60
2022-10-13T10:41:50.640Z,18.00
2022-10-13T10:44:23.147Z,18.10
2022-10-13T10:46:52.322Z,18.60
2022-10-13T10:49:28.005Z,18.90
2022-10-13T10:51:56.277Z,18.70
2022-10-13T10:54:32.062Z,18.30
2022-10-13T10:57:05.057Z,17.90
2022-10-13T10:59:50.315Z,17.90
2022-10-13T11:02:36.245Z,18.00
2022-10-13T11:05:06.545Z,17.90
2022-10-13T11:07:57.586Z,18.10
2022-10-13T11:10:26.872Z,18.40
2022-10-13T11:13:22.286Z,18.60
2022-10-13T11:15:50.761Z,19.20
2022-10-13T11:19:05.482Z,19.60
2022-10-13T11:22:22.453Z,19.90
2022-10-13T11:25:20.206Z,20.10
2022-10-13T11:27:48.140Z,19.70
2022-10-13T11:30:43.043Z,19.50
2022-10-13T11:33:33.613Z,19.20
2022-10-13T11:36:34.877Z,19.20
2022-10-13T11:39:39.694Z,19.40
2022-10-13T11:42:24.125Z,19.60
2022-10-13T11:44:56.881Z,20.20
2022-10-13T11:47:53.901Z,20.60
2022-10-13T11:50:29.981Z,20.30
2022-10-13T11:53:18.659Z,19.80
2022-10-13T11:55:51.938Z,19.20
2022-10-13T11:58:23.469Z,19.70
2022-10-13T12:00:53.337Z,19.30
2022-10-13T12:03:23.084Z,19.70
2022-10-13T12:05:52.297Z,20.10
2022-10-13T12:08:21.901Z,20.20
2022-10-13T12:10:55.686Z,20.30
2022-10-13T12:13:27.548Z,20.40
2022-10-13T12:16:03.054Z,19.80
2022-10-13T12:18:34.116Z,20.20
2022-10-13T12:21:04.539Z,20.20
2022-10-13T12:23:33.696Z,19.90
2022-10-13T12:26:01.910Z,19.60
2022-10-13T12:28:44.159Z,19.20
2022-10-13T12:31:20.044Z,19.00
2022-10-13T12:33:54.443Z,19.00
2022-10-13T12:36:26.370Z,19.30
2022-10-13T12:38:56.555Z,19.00
2022-10-13T12:41:28.337Z,19.20
2022-10-13T12:44:01.088Z,19.20
2022-10-13T12:46:39.810Z,19.00
2022-10-13T12:49:08.690Z,18.70
2022-10-13T12:51:39.543Z,18.40
2022-10-13T12:54:09.541Z,18.60
2022-10-13T12:56:38.057Z,18.60
2022-10-13T12:59:14.862Z,18.70
2022-10-13T13:01:44.765Z,18.50
2022-10-13T13:04:28.454Z,18.50
2022-10-13T13:06:57.104Z,18.50
2022-10-13T13:09:28.149Z,18.50
2022-10-13T13:12:23.791Z,18.30
2022-10-13T13:14:54.998Z,18.40
2022-10-13T13:20:21.978Z,18.10
2022-10-13T13:22:50.886Z,17.50
2022-10-13T13:25:18.894Z,17.60
2022-10-13T13:27:46.798Z,17.60
2022-10-13T13:30:21.521Z,18.00
2022-10-13T13:32:49.809Z,18.20
2022-10-13T13:35:17.813Z,18.60
2022-10-13T13:37:49.685Z,18.60
2022-10-13T13:40:21.167Z,18.60
2022-10-13T13:42:49.694Z,18.80
2022-10-13T13:45:20.727Z,18.70
2022-10-13T13:47:49.262Z,18.40
2022-10-13T13:50:21.245Z,18.20
2022-10-13T13:52:57.375Z,17.90
2022-10-13T13:55:26.280Z,17.60
2022-10-13T13:57:54.249Z,17.70
2022-10-13T14:00:24.037Z,17.80
2022-10-13T14:02:56.311Z,17.70
2022-10-13T14:05:24.687Z,17.90
2022-10-13T14:07:55.170Z,18.10
2022-10-13T14:10:23.293Z,17.80
2022-10-13T14:12:51.292Z,17.50
2022-10-13T14:15:19.634Z,17.60
2022-10-13T14:17:48.928Z,17.80
2022-10-13T14:20:16.949Z,17.90
2022-10-13T14:22:46.054Z,17.60
2022-10-13T14:25:14.960Z,17.50
2022-10-13T14:27:45.684Z,17.60
2022-10-13T14:30:15.300Z,17.50
2022-10-13T14:32:43.957Z,17.50
2022-10-13T14:35:13.274Z,17.50
2022-10-13T14:37:41.231Z,17.40
2022-10-13T14:40:10.080Z,17.50
2022-10-13T14:42:40.195Z,17.50
2022-10-13T14:45:10.538Z,17.50
2022-10-13T14:47:40.277Z,17.40
2022-10-13T14:50:09.354Z,17.40
2022-10-13T14:52:38.741Z,17.60
2022-10-13T14:55:07.103Z,17.70
2022-10-13T14:57:35.458Z,17.60
2022-10-13T15:00:03.691Z,17.70
2022-10-13T15:02:31.732Z,17.70
2022-10-13T15:04:59.690Z,17.50
2022-10-13T15:07:27.683Z,17.50
2022-10-13T15:10:05.988Z,17.50
2022-10-13T15:12:34.917Z,17.40
2022-10-13T15:15:03.040Z,17.50
2022-10-13T15:17:33.140Z,17.30
2022-10-13T15:20:01.511Z,17.20
2022-10-13T15:22:29.470Z,16.90
2022-10-13T15:24:59.017Z,17.00
2022-10-13T15:27:27.029Z,16.90
2022-10-13T15:29:54.961Z,16.70
2022-10-13T15:32:23.260Z,16.60
2022-10-13T15:34:55.811Z,16.60
2022-10-13T15:37:23.817Z,16.50
2022-10-13T15:39:56.886Z,16.40
2022-10-13T15:42:26.697Z,16.30
2022-10-13T15:45:09.598Z,16.20
2022-10-13T15:47:38.734Z,16.20
2022-10-13T15:50:07.436Z,16.00
2022-10-13T15:52:39.037Z,16.00
2022-10-13T15:55:07.825Z,15.90
2022-10-13T15:57:37.219Z,16.00
2022-10-13T16:00:06.367Z,15.90
2022-10-13T16:02:41.093Z,15.90
2022-10-13T16:05:10.809Z,15.90
2022-10-13T16:07:40.001Z,15.90
2022-10-13T16:10:08.765Z,15.80
2022-10-13T16:12:38.404Z,15.70
2022-10-13T16:15:07.190Z,15.60
2022-10-13T16:17:35.408Z,15.60
2022-10-13T16:20:03.502Z,15.50
2022-10-13T16:22:31.539Z,15.50
2022-10-13T16:24:59.499Z,15.40
2022-10-13T16:27:27.489Z,15.30
2022-10-13T16:29:56.755Z,15.20
2022-10-13T16:32:24.725Z,15.20
2022-10-13T16:34:52.677Z,15.10
2022-10-13T16:37:20.964Z,15.00
2022-10-13T16:39:51.761Z,14.90
2022-10-13T16:42:20.245Z,14.90
2022-10-13T16:44:48.151Z,14.80
2022-10-13T16:47:18.610Z,14.80
2022-10-13T16:49:47.273Z,14.70
2022-10-13T16:52:15.952Z,14.70
2022-10-13T16:54:45.011Z,14.60
2022-10-13T16:57:12.937Z,14.60
2022-10-13T16:59:41.037Z,14.60
2022-10-13T17:02:14.210Z,14.50
2022-10-13T17:04:44.566Z,14.40
2022-10-13T17:07:12.722Z,14.20
2022-10-13T17:09:40.672Z,14.20
2022-10-13T17:12:08.784Z,14.20
2022-10-13T17:14:36.794Z,14.20
2022-10-13T17:17:05.022Z,14.10
2022-10-13T17:19:32.979Z,14.10
2022-10-13T17:22:02.255Z,14.10
2022-10-13T17:24:30.755Z,14.10
2022-10-13T17:26:58.647Z,14.00
2022-10-13T17:29:26.649Z,14.00
2022-10-13T17:31:54.637Z,14.00
2022-10-13T17:34:23.649Z,14.10
2022-10-13T17:36:52.480Z,14.10
2022-10-13T17:39:21.944Z,14.00
2022-10-13T17:41:50.069Z,14.00
2022-10-13T17:44:20.676Z,14.00
2022-10-13T17:46:49.718Z,13.90
2022-10-13T17:49:18.411Z,14.00
2022-10-13T17:51:46.712Z,14.00
2022-10-13T17:54:16.310Z,14.00
2022-10-13T17:56:47.393Z,14.00
2022-10-13T17:59:16.643Z,13.90
2022-10-13T18:01:45.795Z,13.70
2022-10-13T18:04:15.501Z,13.60
2022-10-13T18:06:44.771Z,13.60
2022-10-13T18:09:17.380Z,13.60
2022-10-13T18:11:50.700Z,13.60
2022-10-13T18:14:19.819Z,13.60
2022-10-13T18:16:49.781Z,13.50
2022-10-13T18:19:17.964Z,13.40
2022-10-13T18:21:45.866Z,13.30
2022-10-13T18:24:13.836Z,13.30
2022-10-13T18:26:42.065Z,13.30
2022-10-13T18:29:12.711Z,13.40
2022-10-13T18:31:42.433Z,13.40
2022-10-13T18:34:13.674Z,13.30
2022-10-13T18:36:43.601Z,13.30
2022-10-13T18:39:13.739Z,13.20
2022-10-13T18:41:43.804Z,12.80
2022-10-13T18:44:13.637Z,12.90
2022-10-13T18:46:41.788Z,12.90
2022-10-13T18:49:13.495Z,12.80
2022-10-13T18:51:43.034Z,12.80
2022-10-13T18:54:11.401Z,12.80
2022-10-13T18:56:39.626Z,12.80
2022-10-13T18:59:08.915Z,12.70
2022-10-13T19:01:40.855Z,12.70
2022-10-13T19:04:12.541Z,12.60
2022-10-13T19:06:40.972Z,12.60
2022-10-13T19:09:11.596Z,12.50
2022-10-13T19:11:39.904Z,12.50
2022-10-13T19:14:11.784Z,12.40
2022-10-13T19:16:43.569Z,12.40
2022-10-13T19:19:12.111Z,12.50
2022-10-13T19:21:40.624Z,12.40
2022-10-13T19:24:10.473Z,12.40
2022-10-13T19:26:39.440Z,12.40
2022-10-13T19:29:09.848Z,12.30
2022-10-13T19:31:40.506Z,12.30
2022-10-13T19:34:08.780Z,12.20
2022-10-13T19:36:38.863Z,12.20
2022-10-13T19:39:11.700Z,12.10
2022-10-13T19:41:40.265Z,12.00
2022-10-13T19:44:08.364Z,12.00
2022-10-13T19:46:41.462Z,12.00
2022-10-13T19:49:09.689Z,11.90
2022-10-13T19:51:41.682Z,12.00
2022-10-13T19:54:10.898Z,11.90
2022-10-13T19:56:39.057Z,11.90
2022-10-13T19:59:09.273Z,11.90
2022-10-13T20:01:39.856Z,11.90
2022-10-13T20:04:15.830Z,11.80
2022-10-13T20:06:44.709Z,11.90
2022-10-13T20:09:12.657Z,11.90
2022-10-13T20:11:40.791Z,11.90
2022-10-13T20:14:08.747Z,11.90
2022-10-13T20:16:37.806Z,11.80
2022-10-13T20:19:05.931Z,11.70
2022-10-13T20:21:35.258Z,11.70
2022-10-13T20:24:03.253Z,11.60
2022-10-13T20:26:31.260Z,11.60
2022-10-13T20:29:00.271Z,11.70
2022-10-13T20:31:28.398Z,11.80
2022-10-13T20:33:57.760Z,11.90
2022-10-13T20:36:36.004Z,11.80
2022-10-13T20:39:08.549Z,11.70
2022-10-13T20:41:36.953Z,11.70
2022-10-13T20:44:05.177Z,11.80
2022-10-13T20:46:34.530Z,11.80
2022-10-13T20:49:11.346Z,11.70
2022-10-13T20:51:40.811Z,11.70
2022-10-13T20:54:10.470Z,11.60
2022-10-13T20:56:38.527Z,11.60
2022-10-13T20:59:07.982Z,11.60
2022-10-13T21:01:36.896Z,11.70
2022-10-13T21:04:05.511Z,11.70
2022-10-13T21:06:34.150Z,11.70
2022-10-13T21:09:02.707Z,11.60
2022-10-13T21:11:32.047Z,11.70
2022-10-13T21:14:00.230Z,11.80
2022-10-13T21:16:29.278Z,11.80
2022-10-13T21:18:58.433Z,11.90
2022-10-13T21:21:28.196Z,11.90
2022-10-13T21:23:57.984Z,11.90
2022-10-13T21:26:27.185Z,11.80
2022-10-13T21:28:57.339Z,11.90
2022-10-13T21:31:26.769Z,11.80
2022-10-13T21:33:55.826Z,11.80
2022-10-13T21:36:25.689Z,11.80
2022-10-13T21:38:55.314Z,11.80
2022-10-13T21:41:23.886Z,11.80
2022-10-13T21:43:52.328Z,11.80
2022-10-13T21:46:24.280Z,11.90
2022-10-13T21:48:56.670Z,11.80
2022-10-13T21:51:29.129Z,11.90
2022-10-13T21:53:59.219Z,11.90
2022-10-13T21:56:28.206Z,11.90
2022-10-13T21:58:56.980Z,12.00
2022-10-13T22:01:26.375Z,11.90
2022-10-13T22:03:56.187Z,11.90
2022-10-13T22:06:27.785Z,11.90
2022-10-13T22:08:57.308Z,11.90
2022-10-13T22:11:27.028Z,12.00
2022-10-13T22:13:56.770Z,12.00
2022-10-13T22:16:28.750Z,12.10
2022-10-13T22:18:57.830Z,12.20
2022-10-13T22:21:28.779Z,12.20
2022-10-13T22:23:58.251Z,12.20
2022-10-13T22:26:27.284Z,12.20
2022-10-13T22:28:55.449Z,12.20
2022-10-13T22:31:23.421Z,12.20
2022-10-13T22:33:53.713Z,12.20
2022-10-13T22:36:24.035Z,12.20
2022-10-13T22:38:54.216Z,12.30
2022-10-13T22:41:22.293Z,12.30
2022-10-13T22:43:51.640Z,12.30
2022-10-13T22:46:21.050Z,12.30
2022-10-13T22:48:49.441Z,12.40
2022-10-13T22:51:20.668Z,12.30
2022-10-13T22:53:49.848Z,12.30
2022-10-13T22:56:19.978Z,12.30
2022-10-13T22:58:50.923Z,12.40
2022-10-13T23:01:19.604Z,12.40
2022-10-13T23:03:48.914Z,12.40
2022-10-13T23:06:20.928Z,12.40
2022-10-13T23:08:48.929Z,12.40
2022-10-13T23:11:17.337Z,12.40
2022-10-13T23:13:45.516Z,12.40
2022-10-13T23:16:15.662Z,12.40
2022-10-13T23:18:43.978Z,12.30
2022-10-13T23:21:27.006Z,12.30
2022-10-13T23:23:56.741Z,12.30
2022-10-13T23:26:25.159Z,12.30
2022-10-13T23:28:55.608Z,12.30
2022-10-13T23:31:24.470Z,12.40
2022-10-13T23:33:52.617Z,12.30
2022-10-13T23:36:23.700Z,12.30
2022-10-13T23:38:57.121Z,12.30
2022-10-13T23:41:25.347Z,12.30
2022-10-13T23:43:53.416Z,12.40
2022-10-13T23:46:21.404Z,12.40
2022-10-13T23:48:49.415Z,12.40
2022-10-13T23:51:19.785Z,12.40
2022-10-13T23:53:48.813Z,12.30
2022-10-13T23:56:20.099Z,12.40
2022-10-13T23:58:48.041Z,12.30
